Pagrindinis puslapis
METAR-TAF:

METAR-TAF

Oro uostai :

Whiting_Field_Naval_Air_Station_South_Airport

Milton, Florida, Jungtinės Amerikos Valstijos

platuma: 30-41-50N, ilguma: 087-01-12W, Aukštis: 54 m

Dabartinis oras

Ataskaita buvo paskelbta 1 valandą ir 1 minutes, ne 21:56 UTC
Vėjas 6 kt iš Šiaurės/Šiaurės Vakarų
Temperatūra 32°C
Drėgmė 43%
Slėgis 1015 hPa
Matomumas: 16.1 km
Mažai debesys ne aukštis 6000 ft

METAR: KNDZ 302156Z AUTO 34006KT 10SM FEW060 32/18 A2998 RMK AO2 SLP135 T03220183 $

Laikas: 17:57 (22:57 UTC)


TAF: trūkstamas

Orai ataskaitas ir orų prognozės (METAR, TAF).

turimą stotys yra geltonos ir raudonos taškus žemėlapyje.

Perkelti pele per norėdami pamatyti stoties vardą.

Tada spustelėkite, norėdami matyti oro stebėjimo ir prognozės.

Norėdami pakeisti žemėlapį: spustelėkite ant žalios mygtukų su juodo kryžiaus žemyn,; žalią mygtuką su brūkšneliu, jei norite nutolinti; arba žalių rodyklių gretimoms žemėlapius.


METAR-TAF: